createdAt,value
2023-04-05T00:02:11.050Z,98152.81
2023-04-05T00:04:47.248Z,98159.91
2023-04-05T00:07:14.957Z,98148.75
2023-04-05T00:09:44.126Z,98157.25
2023-04-05T00:12:12.040Z,98156.47
2023-04-05T00:14:39.756Z,98153.38
2023-04-05T00:17:08.934Z,98141.66
2023-04-05T00:19:38.209Z,98145.22
2023-04-05T00:22:06.020Z,98144.78
2023-04-05T00:24:38.960Z,98140.63
2023-04-05T00:27:08.041Z,98144.50
2023-04-05T00:29:36.153Z,98142.66
2023-04-05T00:32:04.749Z,98138.75
2023-04-05T00:34:33.707Z,98139.88
2023-04-05T00:37:01.596Z,98145.97
2023-04-05T00:39:29.363Z,98142.28
2023-04-05T00:41:57.201Z,98144.53
2023-04-05T00:44:26.734Z,98144.88
2023-04-05T00:46:54.431Z,98143.19
2023-04-05T00:49:22.174Z,98136.19
2023-04-05T00:51:49.869Z,98135.16
2023-04-05T00:54:18.684Z,98143.03
2023-04-05T00:56:46.636Z,98135.47
2023-04-05T00:59:14.417Z,98129.19
2023-04-05T01:01:44.081Z,98136.00
2023-04-05T01:04:11.968Z,98135.38
2023-04-05T01:07:09.132Z,98125.13
2023-04-05T01:09:43.739Z,98114.34
2023-04-05T01:12:11.543Z,98113.28
2023-04-05T01:14:49.239Z,98107.22
2023-04-05T01:17:22.267Z,98112.38
2023-04-05T01:19:53.320Z,98104.25
2023-04-05T01:22:45.460Z,98107.78
2023-04-05T01:25:38.789Z,98100.75
2023-04-05T01:28:41.812Z,98106.19
2023-04-05T01:31:14.624Z,98103.16
2023-04-05T01:33:45.641Z,98103.78
2023-04-05T01:36:17.965Z,98097.31
2023-04-05T01:38:46.822Z,98101.63
2023-04-05T01:41:14.752Z,98106.81
2023-04-05T01:43:42.558Z,98099.81
2023-04-05T01:46:11.805Z,98105.16
2023-04-05T01:48:39.568Z,98102.13
2023-04-05T01:51:09.781Z,98098.72
2023-04-05T01:53:37.554Z,98095.78
2023-04-05T01:56:06.009Z,98096.47
2023-04-05T01:58:36.108Z,98097.81
2023-04-05T02:01:03.910Z,98097.19
2023-04-05T02:03:33.098Z,98088.50
2023-04-05T02:06:01.776Z,98089.28
2023-04-05T02:08:29.499Z,98088.50
2023-04-05T02:10:57.286Z,98090.22
2023-04-05T02:13:25.844Z,98087.03
2023-04-05T02:15:53.693Z,98092.59
2023-04-05T02:18:22.349Z,98093.66
2023-04-05T02:20:52.118Z,98098.88
2023-04-05T02:23:20.238Z,98083.78
2023-04-05T02:25:48.104Z,98083.59
2023-04-05T02:28:15.831Z,98079.47
2023-04-05T02:30:43.831Z,98080.63
2023-04-05T02:33:12.642Z,98076.69
2023-04-05T02:35:40.425Z,98084.16
2023-04-05T02:38:09.637Z,98082.19
2023-04-05T02:40:37.672Z,98082.38
2023-04-05T02:43:07.396Z,98082.84
2023-04-05T02:45:35.163Z,98084.19
2023-04-05T02:48:03.350Z,98097.13
2023-04-05T02:50:32.811Z,98090.94
2023-04-05T02:53:00.829Z,98087.84
2023-04-05T02:55:34.123Z,98087.00
2023-04-05T02:58:03.066Z,98083.97
2023-04-05T03:00:38.420Z,98084.31
2023-04-05T03:03:06.860Z,98086.72
2023-04-05T03:05:39.068Z,98087.56
2023-04-05T03:08:07.221Z,98078.41
2023-04-05T03:10:39.103Z,98071.53
2023-04-05T03:13:14.761Z,98072.50
2023-04-05T03:15:43.227Z,98074.19
2023-04-05T03:18:14.129Z,98076.25
2023-04-05T03:20:45.930Z,98084.13
2023-04-05T03:23:19.494Z,98075.91
2023-04-05T03:25:52.717Z,98076.06
2023-04-05T03:28:23.560Z,98075.03
2023-04-05T03:30:53.647Z,98069.28
2023-04-05T03:33:22.666Z,98073.63
2023-04-05T03:35:52.027Z,98067.63
2023-04-05T03:38:20.568Z,98075.00
2023-04-05T03:41:13.714Z,98076.22
2023-04-05T03:43:42.229Z,98079.66
2023-04-05T03:46:09.994Z,98081.91
2023-04-05T03:48:40.914Z,98079.22
2023-04-05T03:51:10.395Z,98079.97
2023-04-05T03:53:38.098Z,98089.84
2023-04-05T03:56:06.398Z,98082.06
2023-04-05T03:58:54.302Z,98083.81
2023-04-05T04:01:27.079Z,98082.59
2023-04-05T04:03:55.128Z,98084.47
2023-04-05T04:06:26.804Z,98085.97
2023-04-05T04:08:54.542Z,98080.72
2023-04-05T04:11:22.237Z,98081.16
2023-04-05T04:13:50.228Z,98080.22
2023-04-05T04:16:28.855Z,98085.03
2023-04-05T04:19:19.539Z,98080.69
2023-04-05T04:22:04.568Z,98077.94
2023-04-05T04:24:51.014Z,98072.25
2023-04-05T04:27:39.100Z,98071.13
2023-04-05T04:30:15.058Z,98065.13
2023-04-05T04:32:52.844Z,98069.47
2023-04-05T04:35:46.759Z,98076.19
2023-04-05T04:38:34.977Z,98078.59
2023-04-05T04:41:26.966Z,98079.28
2023-04-05T04:44:14.871Z,98071.28
2023-04-05T04:47:01.206Z,98071.03
2023-04-05T04:49:46.985Z,98074.63
2023-04-05T04:52:14.697Z,98074.94
2023-04-05T04:54:43.073Z,98077.94
2023-04-05T04:57:11.192Z,98078.44
2023-04-05T04:59:38.954Z,98078.31
2023-04-05T05:02:08.708Z,98079.72
2023-04-05T05:04:36.640Z,98082.31
2023-04-05T05:07:05.902Z,98076.28
2023-04-05T05:09:34.764Z,98071.59
2023-04-05T05:12:02.471Z,98074.47
2023-04-05T05:14:30.237Z,98077.34
2023-04-05T05:16:59.152Z,98082.69
2023-04-05T05:19:30.028Z,98073.03
2023-04-05T05:21:58.955Z,98073.13
2023-04-05T05:24:28.165Z,98073.91
2023-04-05T05:26:55.938Z,98072.91
2023-04-05T05:29:23.666Z,98070.69
2023-04-05T05:31:51.408Z,98073.69
2023-04-05T05:34:19.395Z,98073.09
2023-04-05T05:36:51.582Z,98078.41
2023-04-05T05:39:20.600Z,98074.00
2023-04-05T05:41:49.979Z,98076.69
2023-04-05T05:44:17.740Z,98083.13
2023-04-05T05:46:45.462Z,98083.31
2023-04-05T05:49:13.303Z,98081.78
2023-04-05T05:51:40.987Z,98087.84
2023-04-05T05:54:08.697Z,98087.72
2023-04-05T05:56:36.412Z,98083.38
2023-04-05T05:59:05.691Z,98084.03
2023-04-05T06:01:34.599Z,98079.22
2023-04-05T06:04:04.732Z,98088.38
2023-04-05T06:06:35.065Z,98084.97
2023-04-05T06:09:04.153Z,98081.59
2023-04-05T06:11:31.858Z,98093.94
2023-04-05T06:13:59.548Z,98091.25
2023-04-05T06:16:29.241Z,98090.00
2023-04-05T06:19:00.313Z,98093.66
2023-04-05T06:21:28.192Z,98098.31
2023-04-05T06:23:56.744Z,98092.28
2023-04-05T06:26:28.673Z,98093.34
2023-04-05T06:28:56.493Z,98084.69
2023-04-05T06:31:29.092Z,98085.09
2023-04-05T06:33:56.778Z,98092.94
2023-04-05T06:36:26.869Z,98088.84
2023-04-05T06:38:55.916Z,98086.63
2023-04-05T06:41:23.654Z,98092.97
2023-04-05T06:43:51.388Z,98079.66
2023-04-05T06:46:19.184Z,98080.88
2023-04-05T06:48:49.888Z,98080.69
2023-04-05T06:51:17.925Z,98075.53
2023-04-05T06:53:45.794Z,98080.91
2023-04-05T06:56:13.499Z,98093.78
2023-04-05T06:58:41.377Z,98089.13
2023-04-05T07:01:09.133Z,98085.25
2023-04-05T07:03:36.961Z,98084.84
2023-04-05T07:06:06.423Z,98094.63
2023-04-05T07:08:34.273Z,98087.63
2023-04-05T07:11:02.006Z,98089.00
2023-04-05T07:13:29.700Z,98090.78
2023-04-05T07:16:00.836Z,98092.44
2023-04-05T07:18:29.916Z,98089.84
2023-04-05T07:21:00.202Z,98092.06
2023-04-05T07:23:29.600Z,98083.81
2023-04-05T07:26:04.499Z,98088.56
2023-04-05T07:28:33.021Z,98089.50
2023-04-05T07:31:00.952Z,98090.38
2023-04-05T07:33:28.841Z,98083.94
2023-04-05T07:35:56.996Z,98084.22
2023-04-05T07:38:24.999Z,98105.81
2023-04-05T07:40:54.045Z,98095.34
2023-04-05T07:43:21.828Z,98095.56
2023-04-05T07:45:49.566Z,98098.03
2023-04-05T07:48:17.263Z,98092.59
2023-04-05T07:50:47.701Z,98095.84
2023-04-05T07:53:15.887Z,98094.56
2023-04-05T07:55:43.966Z,98097.72
2023-04-05T07:58:12.996Z,98094.63
2023-04-05T08:00:41.334Z,98101.28
2023-04-05T08:03:09.265Z,98094.63
2023-04-05T08:05:37.019Z,98100.28
2023-04-05T08:08:04.713Z,98093.72
2023-04-05T08:10:33.094Z,98090.19
2023-04-05T08:13:00.813Z,98087.13
2023-04-05T08:15:29.825Z,98097.41
2023-04-05T08:17:57.556Z,98093.84
2023-04-05T08:20:25.509Z,98094.56
2023-04-05T08:22:53.178Z,98088.72
2023-04-05T08:25:20.866Z,98092.09
2023-04-05T08:27:48.529Z,98088.16
2023-04-05T08:30:16.653Z,98090.84
2023-04-05T08:32:45.730Z,98087.31
2023-04-05T08:35:13.453Z,98084.91
2023-04-05T08:37:41.152Z,98083.66
2023-04-05T08:40:09.692Z,98083.78
2023-04-05T08:42:38.179Z,98074.97
2023-04-05T08:45:06.870Z,98085.09
2023-04-05T08:47:34.703Z,98078.59
2023-04-05T08:50:05.307Z,98082.38
2023-04-05T08:52:33.331Z,98079.66
2023-04-05T08:55:01.158Z,98076.34
2023-04-05T08:57:28.902Z,98077.84
2023-04-05T08:59:56.684Z,98073.16
2023-04-05T09:02:24.603Z,98069.59
2023-04-05T09:04:52.386Z,98075.16
2023-04-05T09:07:21.586Z,98073.91
2023-04-05T09:09:50.825Z,98078.69
2023-04-05T09:12:18.571Z,98076.22
2023-04-05T09:14:46.279Z,98074.97
2023-04-05T09:17:14.106Z,98076.81
2023-04-05T09:19:43.636Z,98071.72
2023-04-05T09:22:11.807Z,98084.22
2023-04-05T09:24:43.535Z,98077.09
2023-04-05T09:27:12.075Z,98079.38
2023-04-05T09:29:40.969Z,98074.44
2023-04-05T09:32:10.164Z,98078.50
2023-04-05T09:34:38.464Z,98073.00
2023-04-05T09:37:14.273Z,98076.44
2023-04-05T09:39:43.654Z,98072.88
2023-04-05T09:42:13.065Z,98073.47
2023-04-05T09:44:51.174Z,98064.53
2023-04-05T09:47:19.344Z,98066.34
2023-04-05T09:49:47.740Z,98060.75
2023-04-05T09:52:20.080Z,98065.38
2023-04-05T09:54:49.572Z,98069.44
2023-04-05T09:57:18.142Z,98068.16
2023-04-05T09:59:46.271Z,98064.09
2023-04-05T10:02:14.107Z,98060.91
2023-04-05T10:04:42.442Z,98061.06
2023-04-05T10:07:11.268Z,98060.50
2023-04-05T10:09:39.072Z,98062.34
2023-04-05T10:12:08.827Z,98061.34
2023-04-05T10:14:37.015Z,98059.31
2023-04-05T10:17:10.261Z,98060.91
2023-04-05T10:19:58.012Z,98057.47
2023-04-05T10:22:29.267Z,98065.66
2023-04-05T10:25:00.955Z,98057.78
2023-04-05T10:27:31.874Z,98062.47
2023-04-05T10:30:05.019Z,98048.91
2023-04-05T10:32:40.956Z,98051.53
2023-04-05T10:35:11.051Z,98051.84
2023-04-05T10:37:43.558Z,98048.59
2023-04-05T10:40:11.577Z,98043.88
2023-04-05T10:42:43.948Z,98048.06
2023-04-05T10:45:15.716Z,98038.94
2023-04-05T10:47:45.971Z,98046.25
2023-04-05T10:50:15.607Z,98033.41
2023-04-05T10:52:43.510Z,98043.25
2023-04-05T10:55:11.317Z,98033.16
2023-04-05T10:57:39.034Z,98044.00
2023-04-05T11:00:09.657Z,98036.06
2023-04-05T11:02:37.432Z,98047.28
2023-04-05T11:05:05.693Z,98041.44
2023-04-05T11:07:43.764Z,98041.50
2023-04-05T11:10:17.202Z,98037.22
2023-04-05T11:13:03.828Z,98040.31
2023-04-05T11:15:33.486Z,98042.91
2023-04-05T11:18:09.570Z,98038.22
2023-04-05T11:20:47.706Z,98031.81
2023-04-05T11:23:16.408Z,98031.59
2023-04-05T11:25:48.147Z,98032.53
2023-04-05T11:28:26.825Z,98021.09
2023-04-05T11:30:58.697Z,98024.28
2023-04-05T11:33:40.118Z,98018.09
2023-04-05T11:36:08.770Z,98020.31
2023-04-05T11:38:36.555Z,98017.25
2023-04-05T11:41:08.438Z,98019.50
2023-04-05T11:43:38.363Z,98014.97
2023-04-05T11:46:07.569Z,98012.25
2023-04-05T11:48:36.481Z,98008.31
2023-04-05T11:51:08.591Z,98013.84
2023-04-05T11:53:36.404Z,98012.31
2023-04-05T11:56:08.354Z,98007.09
2023-04-05T11:58:36.198Z,98003.25
2023-04-05T12:01:04.644Z,98003.06
2023-04-05T12:03:34.062Z,97999.22
2023-04-05T12:06:02.470Z,97992.34
2023-04-05T12:08:39.688Z,97991.28
2023-04-05T12:11:08.370Z,98004.41
2023-04-05T12:13:36.332Z,97998.81
2023-04-05T12:16:04.870Z,97991.34
2023-04-05T12:18:34.831Z,97993.50
2023-04-05T12:21:04.953Z,97993.13
2023-04-05T12:23:34.228Z,97989.72
2023-04-05T12:26:01.922Z,97989.50
2023-04-05T12:28:50.373Z,97989.47
2023-04-05T12:31:18.070Z,97978.03
2023-04-05T12:33:47.148Z,97985.31
2023-04-05T12:36:15.022Z,97980.81
2023-04-05T12:38:42.767Z,97971.72
2023-04-05T12:41:10.701Z,97976.41
2023-04-05T12:43:41.839Z,97966.09
2023-04-05T12:46:12.541Z,97965.41
2023-04-05T12:48:40.275Z,97960.81
2023-04-05T12:51:17.126Z,97961.28
2023-04-05T12:53:48.228Z,97965.72
2023-04-05T12:56:16.575Z,97962.09
2023-04-05T12:58:44.380Z,97962.00
2023-04-05T13:05:26.111Z,97954.13
2023-04-05T13:07:55.485Z,97948.25
2023-04-05T13:10:24.207Z,97956.03
2023-04-05T13:12:51.882Z,97947.91
2023-04-05T13:15:19.522Z,97948.69
2023-04-05T13:17:49.710Z,97945.50
2023-04-05T13:20:18.543Z,97942.69
2023-04-05T13:22:46.349Z,97932.13
2023-04-05T13:25:15.444Z,97927.22
2023-04-05T13:27:43.187Z,97922.91
2023-04-05T13:30:11.667Z,97927.97
2023-04-05T13:32:39.501Z,97916.25
2023-04-05T13:35:07.954Z,97912.84
2023-04-05T13:37:35.705Z,97919.56
2023-04-05T13:40:03.445Z,97913.97
2023-04-05T13:42:32.469Z,97910.56
2023-04-05T13:45:00.572Z,97908.16
2023-04-05T13:47:28.493Z,97910.84
2023-04-05T13:49:56.457Z,97904.81
2023-04-05T13:52:25.815Z,97901.53
2023-04-05T13:55:01.810Z,97901.38
2023-04-05T13:57:32.912Z,97904.75
2023-04-05T14:00:00.870Z,97898.56
2023-04-05T14:02:28.979Z,97890.81
2023-04-05T14:04:56.829Z,97891.94
2023-04-05T14:07:24.662Z,97887.34
2023-04-05T14:14:05.784Z,97876.78
2023-04-05T14:16:33.511Z,97877.06
2023-04-05T14:19:01.177Z,97876.44
2023-04-05T14:21:28.801Z,97875.53
2023-04-05T14:23:57.988Z,97871.44
2023-04-05T14:26:26.642Z,97871.91
2023-04-05T14:28:54.624Z,97857.88
2023-04-05T14:31:25.210Z,97857.91
2023-04-05T14:33:53.015Z,97862.66
2023-04-05T14:36:20.859Z,97857.78
2023-04-05T14:38:48.761Z,97855.50
2023-04-05T14:41:16.623Z,97854.69
2023-04-05T14:43:44.359Z,97854.22
2023-04-05T14:46:12.079Z,97848.06
2023-04-05T14:48:41.136Z,97851.59
2023-04-05T14:51:09.083Z,97848.16
2023-04-05T14:53:36.977Z,97844.84
2023-04-05T14:56:04.881Z,97846.50
2023-04-05T14:58:34.101Z,97840.81
2023-04-05T15:01:01.934Z,97846.66
2023-04-05T15:03:31.036Z,97850.09
2023-04-05T15:06:00.373Z,97838.13
2023-04-05T15:08:28.101Z,97841.22
2023-04-05T15:10:56.289Z,97833.44
2023-04-05T15:13:26.208Z,97835.66
2023-04-05T15:15:53.922Z,97832.72
2023-04-05T15:18:21.663Z,97840.22
2023-04-05T15:20:49.386Z,97833.19
2023-04-05T15:23:18.505Z,97830.44
2023-04-05T15:25:46.698Z,97828.00
2023-04-05T15:28:14.474Z,97821.69
2023-04-05T15:30:43.358Z,97822.88
2023-04-05T15:33:11.439Z,97816.38
2023-04-05T15:35:39.211Z,97812.13
2023-04-05T15:38:07.107Z,97813.53
2023-04-05T15:40:36.405Z,97818.84
2023-04-05T15:43:04.134Z,97822.31
2023-04-05T15:45:31.836Z,97826.00
2023-04-05T15:47:59.696Z,97820.41
2023-04-05T15:50:27.681Z,97822.44
2023-04-05T15:52:55.641Z,97828.25
2023-04-05T15:55:23.316Z,97816.91
2023-04-05T15:57:54.630Z,97824.66
2023-04-05T16:00:23.088Z,97819.34
2023-04-05T16:02:52.941Z,97829.72
2023-04-05T16:05:22.533Z,97830.44
2023-04-05T16:07:50.409Z,97823.06
2023-04-05T16:10:18.241Z,97827.72
2023-04-05T16:12:45.979Z,97828.44
2023-04-05T16:15:15.098Z,97823.59
2023-04-05T16:17:42.928Z,97822.91
2023-04-05T16:20:11.896Z,97821.94
2023-04-05T16:22:39.881Z,97828.00
2023-04-05T16:25:08.037Z,97822.09
2023-04-05T16:27:37.081Z,97826.22
2023-04-05T16:30:05.862Z,97827.88
2023-04-05T16:32:34.973Z,97821.13
2023-04-05T16:35:02.699Z,97824.72
2023-04-05T16:37:30.457Z,97823.63
2023-04-05T16:39:58.341Z,97823.06
2023-04-05T16:42:26.293Z,97818.16
2023-04-05T16:44:53.991Z,97814.81
2023-04-05T16:47:21.713Z,97821.84
2023-04-05T16:49:51.096Z,97821.44
2023-04-05T16:52:18.825Z,97821.00
2023-04-05T16:54:46.624Z,97821.84
2023-04-05T16:57:14.759Z,97815.91
2023-04-05T16:59:42.613Z,97814.94
2023-04-05T17:02:10.520Z,97818.81
2023-04-05T17:04:38.462Z,97816.63
2023-04-05T17:07:07.900Z,97816.91
2023-04-05T17:09:35.752Z,97826.28
2023-04-05T17:12:04.154Z,97822.44
2023-04-05T17:14:32.117Z,97824.75
2023-04-05T17:16:59.887Z,97825.72
2023-04-05T17:19:27.667Z,97825.88
2023-04-05T17:21:55.434Z,97819.97
2023-04-05T17:24:26.267Z,97828.75
2023-04-05T17:26:54.091Z,97826.53
2023-04-05T17:29:21.843Z,97831.38
2023-04-05T17:31:49.674Z,97832.06
2023-04-05T17:34:17.426Z,97827.09
2023-04-05T17:36:45.897Z,97827.59
2023-04-05T17:39:13.662Z,97829.53
2023-04-05T17:41:42.762Z,97840.31
2023-04-05T17:44:10.578Z,97824.81
2023-04-05T17:46:44.531Z,97829.69
2023-04-05T17:49:16.412Z,97823.59
2023-04-05T17:51:44.198Z,97823.81
2023-04-05T17:54:12.493Z,97822.41
2023-04-05T17:56:40.472Z,97812.78
2023-04-05T17:59:09.878Z,97811.66
2023-04-05T18:01:38.062Z,97812.16
2023-04-05T18:04:06.628Z,97818.97
2023-04-05T18:06:34.692Z,97819.81
2023-04-05T18:09:03.359Z,97820.56
2023-04-05T18:11:31.828Z,97821.56
2023-04-05T18:13:59.554Z,97827.19
2023-04-05T18:16:29.337Z,97827.56
2023-04-05T18:18:57.404Z,97830.28
2023-04-05T18:21:25.947Z,97835.59
2023-04-05T18:23:53.939Z,97841.00
2023-04-05T18:26:21.723Z,97834.47
2023-04-05T18:28:49.455Z,97838.13
2023-04-05T18:31:17.273Z,97834.94
2023-04-05T18:33:46.346Z,97832.19
2023-04-05T18:36:14.161Z,97831.22
2023-04-05T18:38:41.943Z,97830.81
2023-04-05T18:41:10.966Z,97832.75
2023-04-05T18:43:38.785Z,97832.38
2023-04-05T18:46:06.653Z,97841.31
2023-04-05T18:48:38.719Z,97839.13
2023-04-05T18:51:07.853Z,97837.41
2023-04-05T18:53:36.100Z,97847.47
2023-04-05T18:56:03.827Z,97850.91
2023-04-05T18:58:31.553Z,97848.91
2023-04-05T19:00:59.691Z,97841.59
2023-04-05T19:03:27.842Z,97855.50
2023-04-05T19:05:55.706Z,97850.06
2023-04-05T19:08:26.092Z,97858.81
2023-04-05T19:10:53.927Z,97854.13
2023-04-05T19:13:21.621Z,97867.28
2023-04-05T19:15:49.413Z,97858.56
2023-04-05T19:18:17.151Z,97857.41
2023-04-05T19:20:44.936Z,97857.28
2023-04-05T19:23:12.642Z,97855.03
2023-04-05T19:25:41.751Z,97860.25
2023-04-05T19:28:09.449Z,97855.94
2023-04-05T19:30:40.207Z,97862.09
2023-04-05T19:33:08.074Z,97867.06
2023-04-05T19:35:36.580Z,97859.78
2023-04-05T19:38:04.389Z,97861.75
2023-04-05T19:40:32.206Z,97858.09
2023-04-05T19:43:01.999Z,97867.31
2023-04-05T19:45:30.457Z,97860.13
2023-04-05T19:48:01.201Z,97854.22
2023-04-05T19:50:46.725Z,97861.16
2023-04-05T19:53:32.929Z,97851.50
2023-04-05T19:56:00.770Z,97858.59
2023-04-05T19:58:29.812Z,97861.63
2023-04-05T20:00:57.564Z,97864.94
2023-04-05T20:03:29.533Z,97860.59
2023-04-05T20:06:08.105Z,97856.09
2023-04-05T20:08:36.900Z,97859.75
2023-04-05T20:11:10.035Z,97857.63
2023-04-05T20:13:46.279Z,97848.69
2023-04-05T20:16:14.868Z,97849.59
2023-04-05T20:18:46.169Z,97853.28
2023-04-05T20:21:16.357Z,97852.44
2023-04-05T20:23:44.750Z,97844.44
2023-04-05T20:26:14.300Z,97844.97
2023-04-05T20:28:43.181Z,97833.81
2023-04-05T20:31:13.772Z,97829.56
2023-04-05T20:33:51.338Z,97836.59
2023-04-05T20:36:20.018Z,97832.38
2023-04-05T20:38:48.019Z,97836.84
2023-04-05T20:41:17.637Z,97838.00
2023-04-05T20:43:45.498Z,97843.50
2023-04-05T20:46:14.742Z,97843.81
2023-04-05T20:48:42.737Z,97842.41
2023-04-05T20:51:14.003Z,97842.16
2023-04-05T20:53:41.820Z,97836.97
2023-04-05T20:56:10.471Z,97838.03
2023-04-05T20:58:38.931Z,97837.22
2023-04-05T21:01:07.204Z,97836.47
2023-04-05T21:03:37.405Z,97833.38
2023-04-05T21:06:06.322Z,97835.28
2023-04-05T21:08:34.038Z,97839.16
2023-04-05T21:11:01.830Z,97839.19
2023-04-05T21:13:29.578Z,97837.78
2023-04-05T21:15:57.550Z,97842.25
2023-04-05T21:18:25.701Z,97831.44
2023-04-05T21:20:55.022Z,97832.50
2023-04-05T21:23:23.499Z,97840.88
2023-04-05T21:25:51.223Z,97825.88
2023-04-05T21:28:18.932Z,97828.06
2023-04-05T21:30:46.731Z,97828.28
2023-04-05T21:33:14.492Z,97837.22
2023-04-05T21:35:42.259Z,97829.88
2023-04-05T21:38:12.470Z,97828.28
2023-04-05T21:40:42.486Z,97817.84
2023-04-05T21:43:10.260Z,97821.69
2023-04-05T21:45:37.970Z,97824.56
2023-04-05T21:48:06.101Z,97822.13
2023-04-05T21:50:33.851Z,97817.69
2023-04-05T21:53:01.663Z,97822.91
2023-04-05T21:55:30.741Z,97829.44
2023-04-05T21:57:58.429Z,97828.69
2023-04-05T22:00:26.413Z,97823.69
2023-04-05T22:02:54.261Z,97819.41
2023-04-05T22:05:34.049Z,97821.03
2023-04-05T22:08:05.943Z,97824.38
2023-04-05T22:10:35.502Z,97825.13
2023-04-05T22:13:03.246Z,97817.31
2023-04-05T22:15:30.958Z,97812.53
2023-04-05T22:17:58.798Z,97812.78
2023-04-05T22:20:26.623Z,97816.16
2023-04-05T22:22:54.324Z,97809.81
2023-04-05T22:25:22.074Z,97808.50
2023-04-05T22:27:51.156Z,97806.09
2023-04-05T22:30:19.246Z,97816.69
2023-04-05T22:32:46.967Z,97801.22
2023-04-05T22:35:14.735Z,97802.88
2023-04-05T22:37:42.533Z,97797.91
2023-04-05T22:40:11.269Z,97798.38
2023-04-05T22:42:41.911Z,97796.00
2023-04-05T22:45:11.981Z,97799.16
2023-04-05T22:47:39.694Z,97802.22
2023-04-05T22:50:08.754Z,97807.31
2023-04-05T22:52:36.488Z,97799.53
2023-04-05T22:55:05.626Z,97800.47
2023-04-05T22:57:33.429Z,97796.03
2023-04-05T23:00:01.155Z,97798.59
2023-04-05T23:02:30.580Z,97793.63
2023-04-05T23:04:58.431Z,97793.72
2023-04-05T23:07:26.503Z,97794.72
2023-04-05T23:09:54.257Z,97794.28
2023-04-05T23:12:22.559Z,97801.22
2023-04-05T23:14:50.944Z,97791.38
2023-04-05T23:17:18.643Z,97790.28
2023-04-05T23:19:47.735Z,97792.41
2023-04-05T23:22:15.425Z,97796.91
2023-04-05T23:24:43.130Z,97795.50
2023-04-05T23:27:10.969Z,97788.06
2023-04-05T23:29:38.767Z,97795.03
2023-04-05T23:32:12.531Z,97787.00
2023-04-05T23:34:40.547Z,97784.16
2023-04-05T23:37:09.552Z,97792.16
2023-04-05T23:39:37.283Z,97791.16
2023-04-05T23:42:05.125Z,97788.34
2023-04-05T23:44:32.821Z,97780.97
2023-04-05T23:47:00.514Z,97781.91
2023-04-05T23:49:28.325Z,97789.34
2023-04-05T23:51:56.197Z,97782.44
2023-04-05T23:54:25.603Z,97780.22
2023-04-05T23:56:53.865Z,97781.72
2023-04-05T23:59:21.665Z,97770.59
